sensor_id;sensor_type;location;lat;lon;timestamp;P1;durP1;ratioP1;P2;durP2;ratioP2
52618;SDS011;38513;53.234;6.568;2023-03-18T00:00:45;19.23;;;12.25;;
52618;SDS011;38513;53.234;6.568;2023-03-18T00:03:11;20.42;;;12.65;;
52618;SDS011;38513;53.234;6.568;2023-03-18T00:05:38;20.77;;;13.10;;
52618;SDS011;38513;53.234;6.568;2023-03-18T00:08:05;18.25;;;12.70;;
52618;SDS011;38513;53.234;6.568;2023-03-18T00:10:33;19.15;;;12.02;;
52618;SDS011;38513;53.234;6.568;2023-03-18T00:13:00;20.05;;;12.32;;
52618;SDS011;38513;53.234;6.568;2023-03-18T00:15:28;19.83;;;12.52;;
52618;SDS011;38513;53.234;6.568;2023-03-18T00:17:54;18.85;;;11.95;;
52618;SDS011;38513;53.234;6.568;2023-03-18T00:20:23;17.75;;;12.27;;
52618;SDS011;38513;53.234;6.568;2023-03-18T00:23:02;18.50;;;11.45;;
52618;SDS011;38513;53.234;6.568;2023-03-18T00:25:28;17.63;;;11.60;;
52618;SDS011;38513;53.234;6.568;2023-03-18T00:27:55;18.58;;;12.20;;
52618;SDS011;38513;53.234;6.568;2023-03-18T00:30:21;17.85;;;11.63;;
52618;SDS011;38513;53.234;6.568;2023-03-18T00:32:47;17.02;;;11.65;;
52618;SDS011;38513;53.234;6.568;2023-03-18T00:35:13;18.30;;;11.48;;
52618;SDS011;38513;53.234;6.568;2023-03-18T00:37:40;16.42;;;10.70;;
52618;SDS011;38513;53.234;6.568;2023-03-18T00:40:08;15.90;;;11.17;;
52618;SDS011;38513;53.234;6.568;2023-03-18T00:42:41;16.92;;;11.27;;
52618;SDS011;38513;53.234;6.568;2023-03-18T00:45:12;15.70;;;10.85;;
52618;SDS011;38513;53.234;6.568;2023-03-18T00:47:38;18.95;;;11.73;;
52618;SDS011;38513;53.234;6.568;2023-03-18T00:50:05;17.95;;;11.32;;
52618;SDS011;38513;53.234;6.568;2023-03-18T00:52:32;16.37;;;11.17;;
52618;SDS011;38513;53.234;6.568;2023-03-18T00:54:58;17.73;;;11.40;;
52618;SDS011;38513;53.234;6.568;2023-03-18T00:57:25;17.05;;;11.60;;
52618;SDS011;38513;53.234;6.568;2023-03-18T00:59:52;18.13;;;11.85;;
52618;SDS011;38513;53.234;6.568;2023-03-18T01:02:18;16.10;;;11.37;;
52618;SDS011;38513;53.234;6.568;2023-03-18T01:04:44;17.50;;;11.85;;
52618;SDS011;38513;53.234;6.568;2023-03-18T01:07:11;16.17;;;11.87;;
52618;SDS011;38513;53.234;6.568;2023-03-18T01:09:37;21.10;;;12.17;;
52618;SDS011;38513;53.234;6.568;2023-03-18T01:12:06;17.30;;;11.97;;
52618;SDS011;38513;53.234;6.568;2023-03-18T01:14:32;19.55;;;12.98;;
52618;SDS011;38513;53.234;6.568;2023-03-18T01:16:58;18.73;;;12.98;;
52618;SDS011;38513;53.234;6.568;2023-03-18T01:19:24;18.77;;;13.60;;
52618;SDS011;38513;53.234;6.568;2023-03-18T01:21:51;20.20;;;13.68;;
52618;SDS011;38513;53.234;6.568;2023-03-18T01:24:17;19.67;;;13.65;;
52618;SDS011;38513;53.234;6.568;2023-03-18T01:26:43;20.17;;;13.65;;
52618;SDS011;38513;53.234;6.568;2023-03-18T01:29:09;20.85;;;14.48;;
52618;SDS011;38513;53.234;6.568;2023-03-18T01:31:36;19.67;;;14.98;;
52618;SDS011;38513;53.234;6.568;2023-03-18T01:34:02;21.35;;;15.05;;
52618;SDS011;38513;53.234;6.568;2023-03-18T01:36:29;22.50;;;16.40;;
52618;SDS011;38513;53.234;6.568;2023-03-18T01:38:55;22.90;;;16.80;;
52618;SDS011;38513;53.234;6.568;2023-03-18T01:41:24;24.42;;;17.42;;
52618;SDS011;38513;53.234;6.568;2023-03-18T01:43:51;24.20;;;18.48;;
52618;SDS011;38513;53.234;6.568;2023-03-18T01:46:29;25.02;;;19.05;;
52618;SDS011;38513;53.234;6.568;2023-03-18T01:48:55;25.73;;;19.05;;
52618;SDS011;38513;53.234;6.568;2023-03-18T01:51:22;24.88;;;20.05;;
52618;SDS011;38513;53.234;6.568;2023-03-18T01:53:48;26.08;;;19.83;;
52618;SDS011;38513;53.234;6.568;2023-03-18T01:56:15;26.75;;;21.25;;
52618;SDS011;38513;53.234;6.568;2023-03-18T01:58:43;27.63;;;22.00;;
52618;SDS011;38513;53.234;6.568;2023-03-18T02:01:16;29.60;;;23.20;;
52618;SDS011;38513;53.234;6.568;2023-03-18T02:03:44;27.40;;;22.93;;
52618;SDS011;38513;53.234;6.568;2023-03-18T02:06:11;27.60;;;22.70;;
52618;SDS011;38513;53.234;6.568;2023-03-18T02:08:37;29.58;;;23.40;;
52618;SDS011;38513;53.234;6.568;2023-03-18T02:11:05;33.43;;;25.07;;
52618;SDS011;38513;53.234;6.568;2023-03-18T02:13:32;28.77;;;23.92;;
52618;SDS011;38513;53.234;6.568;2023-03-18T02:16:06;29.55;;;25.02;;
52618;SDS011;38513;53.234;6.568;2023-03-18T02:18:36;32.47;;;25.08;;
52618;SDS011;38513;53.234;6.568;2023-03-18T02:28:58;32.10;;;26.92;;
52618;SDS011;38513;53.234;6.568;2023-03-18T02:31:28;33.33;;;27.05;;
52618;SDS011;38513;53.234;6.568;2023-03-18T02:33:56;34.78;;;28.58;;
52618;SDS011;38513;53.234;6.568;2023-03-18T02:36:26;33.78;;;28.50;;
52618;SDS011;38513;53.234;6.568;2023-03-18T02:38:53;33.50;;;27.40;;
52618;SDS011;38513;53.234;6.568;2023-03-18T02:41:20;34.65;;;28.02;;
52618;SDS011;38513;53.234;6.568;2023-03-18T02:43:47;34.00;;;27.97;;
52618;SDS011;38513;53.234;6.568;2023-03-18T02:48:59;34.85;;;29.27;;
52618;SDS011;38513;53.234;6.568;2023-03-18T02:51:26;35.67;;;29.92;;
52618;SDS011;38513;53.234;6.568;2023-03-18T02:53:57;36.00;;;29.58;;
52618;SDS011;38513;53.234;6.568;2023-03-18T02:56:25;37.13;;;30.83;;
52618;SDS011;38513;53.234;6.568;2023-03-18T02:58:52;38.55;;;32.28;;
52618;SDS011;38513;53.234;6.568;2023-03-18T03:01:18;38.50;;;32.85;;
52618;SDS011;38513;53.234;6.568;2023-03-18T03:03:44;37.58;;;32.22;;
52618;SDS011;38513;53.234;6.568;2023-03-18T03:06:11;38.60;;;31.30;;
52618;SDS011;38513;53.234;6.568;2023-03-18T03:08:37;39.10;;;32.95;;
52618;SDS011;38513;53.234;6.568;2023-03-18T03:11:03;42.38;;;33.47;;
52618;SDS011;38513;53.234;6.568;2023-03-18T03:13:29;40.90;;;33.77;;
52618;SDS011;38513;53.234;6.568;2023-03-18T03:15:55;41.17;;;34.67;;
52618;SDS011;38513;53.234;6.568;2023-03-18T03:18:22;41.70;;;34.35;;
52618;SDS011;38513;53.234;6.568;2023-03-18T03:20:51;43.30;;;35.75;;
52618;SDS011;38513;53.234;6.568;2023-03-18T03:23:17;45.77;;;36.37;;
52618;SDS011;38513;53.234;6.568;2023-03-18T03:25:43;43.60;;;37.83;;
52618;SDS011;38513;53.234;6.568;2023-03-18T03:28:10;43.63;;;37.53;;
52618;SDS011;38513;53.234;6.568;2023-03-18T03:30:37;45.90;;;37.28;;
52618;SDS011;38513;53.234;6.568;2023-03-18T03:33:04;44.85;;;38.22;;
52618;SDS011;38513;53.234;6.568;2023-03-18T03:35:30;45.17;;;38.60;;
52618;SDS011;38513;53.234;6.568;2023-03-18T03:37:56;44.42;;;38.50;;
52618;SDS011;38513;53.234;6.568;2023-03-18T03:40:23;47.55;;;39.60;;
52618;SDS011;38513;53.234;6.568;2023-03-18T03:42:50;48.95;;;39.67;;
52618;SDS011;38513;53.234;6.568;2023-03-18T03:45:17;48.10;;;39.65;;
52618;SDS011;38513;53.234;6.568;2023-03-18T03:47:44;48.72;;;39.33;;
52618;SDS011;38513;53.234;6.568;2023-03-18T03:50:11;47.70;;;39.45;;
52618;SDS011;38513;53.234;6.568;2023-03-18T03:52:37;46.08;;;39.78;;
52618;SDS011;38513;53.234;6.568;2023-03-18T03:55:05;47.47;;;39.72;;
52618;SDS011;38513;53.234;6.568;2023-03-18T03:57:31;48.20;;;40.45;;
52618;SDS011;38513;53.234;6.568;2023-03-18T03:59:57;48.80;;;40.38;;
52618;SDS011;38513;53.234;6.568;2023-03-18T04:02:23;47.63;;;40.70;;
52618;SDS011;38513;53.234;6.568;2023-03-18T04:04:51;47.85;;;39.15;;
52618;SDS011;38513;53.234;6.568;2023-03-18T04:07:18;49.70;;;40.08;;
52618;SDS011;38513;53.234;6.568;2023-03-18T04:09:44;49.50;;;40.10;;
52618;SDS011;38513;53.234;6.568;2023-03-18T04:12:11;44.97;;;39.55;;
52618;SDS011;38513;53.234;6.568;2023-03-18T04:14:37;50.05;;;40.63;;
52618;SDS011;38513;53.234;6.568;2023-03-18T04:17:04;51.80;;;41.87;;
52618;SDS011;38513;53.234;6.568;2023-03-18T04:19:30;49.80;;;40.70;;
52618;SDS011;38513;53.234;6.568;2023-03-18T04:21:56;50.08;;;41.45;;
52618;SDS011;38513;53.234;6.568;2023-03-18T04:24:22;49.15;;;40.80;;
52618;SDS011;38513;53.234;6.568;2023-03-18T04:26:49;49.58;;;39.90;;
52618;SDS011;38513;53.234;6.568;2023-03-18T04:29:15;50.30;;;40.20;;
52618;SDS011;38513;53.234;6.568;2023-03-18T04:31:41;48.75;;;41.13;;
52618;SDS011;38513;53.234;6.568;2023-03-18T04:34:07;53.30;;;40.63;;
52618;SDS011;38513;53.234;6.568;2023-03-18T04:36:33;51.92;;;41.47;;
52618;SDS011;38513;53.234;6.568;2023-03-18T04:39:00;47.87;;;39.27;;
52618;SDS011;38513;53.234;6.568;2023-03-18T04:41:26;50.13;;;40.63;;
52618;SDS011;38513;53.234;6.568;2023-03-18T04:43:52;49.10;;;40.05;;
52618;SDS011;38513;53.234;6.568;2023-03-18T04:46:18;49.88;;;39.75;;
52618;SDS011;38513;53.234;6.568;2023-03-18T04:48:45;46.33;;;39.13;;
52618;SDS011;38513;53.234;6.568;2023-03-18T04:51:11;48.83;;;39.33;;
52618;SDS011;38513;53.234;6.568;2023-03-18T04:53:37;47.85;;;38.13;;
52618;SDS011;38513;53.234;6.568;2023-03-18T04:56:04;49.75;;;39.25;;
52618;SDS011;38513;53.234;6.568;2023-03-18T04:58:31;47.92;;;38.70;;
52618;SDS011;38513;53.234;6.568;2023-03-18T05:00:57;48.42;;;37.67;;
52618;SDS011;38513;53.234;6.568;2023-03-18T05:03:23;45.72;;;37.92;;
52618;SDS011;38513;53.234;6.568;2023-03-18T05:05:49;46.23;;;37.83;;
52618;SDS011;38513;53.234;6.568;2023-03-18T05:08:16;49.33;;;37.38;;
52618;SDS011;38513;53.234;6.568;2023-03-18T05:10:42;48.43;;;37.87;;
52618;SDS011;38513;53.234;6.568;2023-03-18T05:13:09;46.42;;;36.25;;
52618;SDS011;38513;53.234;6.568;2023-03-18T05:15:35;47.67;;;36.78;;
52618;SDS011;38513;53.234;6.568;2023-03-18T05:18:01;47.30;;;37.03;;
52618;SDS011;38513;53.234;6.568;2023-03-18T05:20:28;47.95;;;36.50;;
52618;SDS011;38513;53.234;6.568;2023-03-18T05:22:54;44.38;;;35.88;;
52618;SDS011;38513;53.234;6.568;2023-03-18T05:25:21;46.88;;;35.92;;
52618;SDS011;38513;53.234;6.568;2023-03-18T05:27:47;46.30;;;35.30;;
52618;SDS011;38513;53.234;6.568;2023-03-18T05:30:13;44.05;;;35.58;;
52618;SDS011;38513;53.234;6.568;2023-03-18T05:32:40;46.38;;;36.10;;
52618;SDS011;38513;53.234;6.568;2023-03-18T05:35:06;43.92;;;36.90;;
52618;SDS011;38513;53.234;6.568;2023-03-18T05:37:33;44.53;;;35.03;;
52618;SDS011;38513;53.234;6.568;2023-03-18T05:40:00;46.58;;;36.38;;
52618;SDS011;38513;53.234;6.568;2023-03-18T05:42:26;46.80;;;36.17;;
52618;SDS011;38513;53.234;6.568;2023-03-18T05:44:52;48.90;;;35.20;;
52618;SDS011;38513;53.234;6.568;2023-03-18T05:47:22;46.72;;;35.72;;
52618;SDS011;38513;53.234;6.568;2023-03-18T05:49:48;47.38;;;36.00;;
52618;SDS011;38513;53.234;6.568;2023-03-18T05:52:16;47.70;;;35.80;;
52618;SDS011;38513;53.234;6.568;2023-03-18T05:54:42;46.33;;;35.43;;
52618;SDS011;38513;53.234;6.568;2023-03-18T05:57:08;50.60;;;36.73;;
52618;SDS011;38513;53.234;6.568;2023-03-18T05:59:34;47.65;;;36.05;;
52618;SDS011;38513;53.234;6.568;2023-03-18T06:02:04;47.47;;;36.75;;
52618;SDS011;38513;53.234;6.568;2023-03-18T06:04:30;57.92;;;38.15;;
52618;SDS011;38513;53.234;6.568;2023-03-18T06:06:56;53.83;;;37.90;;
52618;SDS011;38513;53.234;6.568;2023-03-18T06:09:22;57.00;;;37.95;;
52618;SDS011;38513;53.234;6.568;2023-03-18T06:11:50;60.65;;;39.28;;
52618;SDS011;38513;53.234;6.568;2023-03-18T06:14:16;60.50;;;39.47;;
52618;SDS011;38513;53.234;6.568;2023-03-18T06:16:43;59.40;;;38.80;;
52618;SDS011;38513;53.234;6.568;2023-03-18T06:19:09;58.97;;;38.78;;
52618;SDS011;38513;53.234;6.568;2023-03-18T06:21:36;60.47;;;38.22;;
52618;SDS011;38513;53.234;6.568;2023-03-18T06:24:02;60.70;;;37.70;;
52618;SDS011;38513;53.234;6.568;2023-03-18T06:26:32;65.68;;;39.83;;
52618;SDS011;38513;53.234;6.568;2023-03-18T06:28:58;59.80;;;39.25;;
52618;SDS011;38513;53.234;6.568;2023-03-18T06:31:24;60.95;;;40.00;;
52618;SDS011;38513;53.234;6.568;2023-03-18T06:33:51;63.40;;;40.70;;
52618;SDS011;38513;53.234;6.568;2023-03-18T06:36:17;65.60;;;40.83;;
52618;SDS011;38513;53.234;6.568;2023-03-18T06:38:43;60.35;;;40.45;;
52618;SDS011;38513;53.234;6.568;2023-03-18T06:41:10;64.55;;;41.03;;
52618;SDS011;38513;53.234;6.568;2023-03-18T06:43:40;62.20;;;41.83;;
52618;SDS011;38513;53.234;6.568;2023-03-18T06:46:07;65.85;;;41.42;;
52618;SDS011;38513;53.234;6.568;2023-03-18T06:48:34;62.85;;;41.40;;
52618;SDS011;38513;53.234;6.568;2023-03-18T06:51:04;61.88;;;41.25;;
52618;SDS011;38513;53.234;6.568;2023-03-18T06:53:35;65.47;;;41.75;;
52618;SDS011;38513;53.234;6.568;2023-03-18T06:56:03;61.63;;;42.88;;
52618;SDS011;38513;53.234;6.568;2023-03-18T06:58:30;60.90;;;42.00;;
52618;SDS011;38513;53.234;6.568;2023-03-18T07:00:57;61.58;;;41.72;;
52618;SDS011;38513;53.234;6.568;2023-03-18T07:03:23;59.38;;;42.35;;
52618;SDS011;38513;53.234;6.568;2023-03-18T07:05:51;60.53;;;41.80;;
52618;SDS011;38513;53.234;6.568;2023-03-18T07:08:17;62.33;;;43.13;;
52618;SDS011;38513;53.234;6.568;2023-03-18T07:10:43;57.92;;;41.15;;
52618;SDS011;38513;53.234;6.568;2023-03-18T07:13:09;59.20;;;42.42;;
52618;SDS011;38513;53.234;6.568;2023-03-18T07:15:37;57.40;;;41.03;;
52618;SDS011;38513;53.234;6.568;2023-03-18T07:18:03;55.58;;;39.40;;
52618;SDS011;38513;53.234;6.568;2023-03-18T07:20:30;53.28;;;39.63;;
52618;SDS011;38513;53.234;6.568;2023-03-18T07:22:57;51.78;;;38.15;;
52618;SDS011;38513;53.234;6.568;2023-03-18T07:25:23;53.22;;;38.90;;
52618;SDS011;38513;53.234;6.568;2023-03-18T07:27:49;47.77;;;37.60;;
52618;SDS011;38513;53.234;6.568;2023-03-18T07:30:16;49.15;;;36.85;;
52618;SDS011;38513;53.234;6.568;2023-03-18T07:32:42;49.63;;;36.97;;
52618;SDS011;38513;53.234;6.568;2023-03-18T07:35:12;48.08;;;36.08;;
52618;SDS011;38513;53.234;6.568;2023-03-18T07:37:39;45.65;;;35.92;;
52618;SDS011;38513;53.234;6.568;2023-03-18T07:40:06;46.38;;;35.90;;
52618;SDS011;38513;53.234;6.568;2023-03-18T07:42:32;44.60;;;35.80;;
52618;SDS011;38513;53.234;6.568;2023-03-18T07:44:58;45.60;;;35.15;;
52618;SDS011;38513;53.234;6.568;2023-03-18T07:47:24;48.67;;;36.03;;
52618;SDS011;38513;53.234;6.568;2023-03-18T07:49:50;46.85;;;35.30;;
52618;SDS011;38513;53.234;6.568;2023-03-18T07:52:17;44.63;;;34.92;;
52618;SDS011;38513;53.234;6.568;2023-03-18T07:54:43;44.25;;;35.97;;
52618;SDS011;38513;53.234;6.568;2023-03-18T07:57:10;45.30;;;35.35;;
52618;SDS011;38513;53.234;6.568;2023-03-18T07:59:37;43.80;;;34.50;;
52618;SDS011;38513;53.234;6.568;2023-03-18T08:02:03;46.00;;;34.73;;
52618;SDS011;38513;53.234;6.568;2023-03-18T08:04:32;41.75;;;33.83;;
52618;SDS011;38513;53.234;6.568;2023-03-18T08:06:59;43.83;;;34.42;;
52618;SDS011;38513;53.234;6.568;2023-03-18T08:09:27;43.65;;;33.92;;
52618;SDS011;38513;53.234;6.568;2023-03-18T08:11:53;43.15;;;34.25;;
52618;SDS011;38513;53.234;6.568;2023-03-18T08:14:19;40.83;;;33.17;;
52618;SDS011;38513;53.234;6.568;2023-03-18T08:16:46;39.63;;;33.17;;
52618;SDS011;38513;53.234;6.568;2023-03-18T08:19:12;38.72;;;32.40;;
52618;SDS011;38513;53.234;6.568;2023-03-18T08:21:47;40.78;;;32.92;;
52618;SDS011;38513;53.234;6.568;2023-03-18T08:24:16;38.90;;;32.20;;
52618;SDS011;38513;53.234;6.568;2023-03-18T08:26:42;38.83;;;31.83;;
52618;SDS011;38513;53.234;6.568;2023-03-18T08:29:08;41.67;;;31.42;;
52618;SDS011;38513;53.234;6.568;2023-03-18T08:31:34;40.47;;;31.10;;
52618;SDS011;38513;53.234;6.568;2023-03-18T08:34:00;35.97;;;30.83;;
52618;SDS011;38513;53.234;6.568;2023-03-18T08:36:29;37.95;;;29.80;;
52618;SDS011;38513;53.234;6.568;2023-03-18T08:38:56;34.08;;;29.63;;
52618;SDS011;38513;53.234;6.568;2023-03-18T08:41:22;36.70;;;30.38;;
52618;SDS011;38513;53.234;6.568;2023-03-18T08:43:50;35.10;;;29.58;;
52618;SDS011;38513;53.234;6.568;2023-03-18T08:46:17;35.78;;;29.38;;
52618;SDS011;38513;53.234;6.568;2023-03-18T08:48:45;38.63;;;30.50;;
52618;SDS011;38513;53.234;6.568;2023-03-18T08:51:13;35.03;;;29.17;;
52618;SDS011;38513;53.234;6.568;2023-03-18T08:53:40;36.15;;;29.70;;
52618;SDS011;38513;53.234;6.568;2023-03-18T08:56:07;36.60;;;30.05;;
52618;SDS011;38513;53.234;6.568;2023-03-18T08:58:33;35.27;;;29.47;;
52618;SDS011;38513;53.234;6.568;2023-03-18T09:01:01;35.37;;;29.40;;
52618;SDS011;38513;53.234;6.568;2023-03-18T09:03:29;37.63;;;31.73;;
52618;SDS011;38513;53.234;6.568;2023-03-18T09:05:55;36.33;;;28.92;;
52618;SDS011;38513;53.234;6.568;2023-03-18T09:08:22;35.25;;;30.08;;
52618;SDS011;38513;53.234;6.568;2023-03-18T09:10:50;35.85;;;30.15;;
52618;SDS011;38513;53.234;6.568;2023-03-18T09:13:18;37.20;;;30.75;;
52618;SDS011;38513;53.234;6.568;2023-03-18T09:15:44;38.65;;;30.95;;
52618;SDS011;38513;53.234;6.568;2023-03-18T09:18:11;36.67;;;30.10;;
52618;SDS011;38513;53.234;6.568;2023-03-18T09:20:40;37.83;;;31.23;;
52618;SDS011;38513;53.234;6.568;2023-03-18T09:23:07;35.00;;;31.13;;
52618;SDS011;38513;53.234;6.568;2023-03-18T09:25:34;36.97;;;30.55;;
52618;SDS011;38513;53.234;6.568;2023-03-18T09:28:00;35.47;;;30.42;;
52618;SDS011;38513;53.234;6.568;2023-03-18T09:30:26;35.75;;;30.02;;
52618;SDS011;38513;53.234;6.568;2023-03-18T09:32:52;34.70;;;29.20;;
52618;SDS011;38513;53.234;6.568;2023-03-18T09:35:21;35.88;;;29.00;;
52618;SDS011;38513;53.234;6.568;2023-03-18T09:37:48;35.28;;;29.30;;
52618;SDS011;38513;53.234;6.568;2023-03-18T09:40:21;35.27;;;28.90;;
52618;SDS011;38513;53.234;6.568;2023-03-18T09:43:00;31.80;;;28.23;;
52618;SDS011;38513;53.234;6.568;2023-03-18T09:53:42;33.85;;;28.58;;
52618;SDS011;38513;53.234;6.568;2023-03-18T09:56:00;33.78;;;28.67;;
52618;SDS011;38513;53.234;6.568;2023-03-18T09:58:33;34.60;;;28.48;;
52618;SDS011;38513;53.234;6.568;2023-03-18T10:01:04;31.65;;;26.63;;
52618;SDS011;38513;53.234;6.568;2023-03-18T10:03:40;30.77;;;27.10;;
52618;SDS011;38513;53.234;6.568;2023-03-18T10:08:41;31.02;;;26.02;;
52618;SDS011;38513;53.234;6.568;2023-03-18T10:11:14;32.42;;;27.13;;
52618;SDS011;38513;53.234;6.568;2023-03-18T10:13:44;30.75;;;26.15;;
52618;SDS011;38513;53.234;6.568;2023-03-18T10:16:14;29.63;;;25.47;;
52618;SDS011;38513;53.234;6.568;2023-03-18T10:18:42;28.40;;;24.65;;
52618;SDS011;38513;53.234;6.568;2023-03-18T10:26:19;29.47;;;24.13;;
52618;SDS011;38513;53.234;6.568;2023-03-18T10:36:49;27.58;;;24.35;;
52618;SDS011;38513;53.234;6.568;2023-03-18T10:39:21;26.55;;;22.60;;
52618;SDS011;38513;53.234;6.568;2023-03-18T10:41:49;24.48;;;21.88;;
52618;SDS011;38513;53.234;6.568;2023-03-18T10:44:17;26.38;;;23.38;;
52618;SDS011;38513;53.234;6.568;2023-03-18T10:46:45;27.67;;;24.77;;
52618;SDS011;38513;53.234;6.568;2023-03-18T10:49:15;26.92;;;23.23;;
52618;SDS011;38513;53.234;6.568;2023-03-18T10:51:49;23.75;;;21.25;;
52618;SDS011;38513;53.234;6.568;2023-03-18T10:54:26;25.55;;;22.80;;
52618;SDS011;38513;53.234;6.568;2023-03-18T10:56:58;24.60;;;22.00;;
52618;SDS011;38513;53.234;6.568;2023-03-18T10:59:24;26.15;;;21.05;;
52618;SDS011;38513;53.234;6.568;2023-03-18T11:01:52;24.37;;;21.73;;
52618;SDS011;38513;53.234;6.568;2023-03-18T11:04:20;25.63;;;22.05;;
52618;SDS011;38513;53.234;6.568;2023-03-18T11:06:56;22.65;;;20.13;;
52618;SDS011;38513;53.234;6.568;2023-03-18T11:09:27;23.10;;;20.55;;
52618;SDS011;38513;53.234;6.568;2023-03-18T11:12:13;23.35;;;19.90;;
52618;SDS011;38513;53.234;6.568;2023-03-18T11:14:45;23.90;;;19.90;;
52618;SDS011;38513;53.234;6.568;2023-03-18T11:17:20;21.85;;;18.85;;
52618;SDS011;38513;53.234;6.568;2023-03-18T11:19:47;21.33;;;18.90;;
52618;SDS011;38513;53.234;6.568;2023-03-18T11:22:21;21.42;;;18.38;;
52618;SDS011;38513;53.234;6.568;2023-03-18T11:24:59;24.20;;;20.90;;
52618;SDS011;38513;53.234;6.568;2023-03-18T11:27:33;23.13;;;19.40;;
52618;SDS011;38513;53.234;6.568;2023-03-18T11:30:02;22.10;;;17.88;;
52618;SDS011;38513;53.234;6.568;2023-03-18T11:32:32;18.52;;;15.05;;
52618;SDS011;38513;53.234;6.568;2023-03-18T11:35:02;17.25;;;14.50;;
52618;SDS011;38513;53.234;6.568;2023-03-18T11:37:39;17.67;;;15.38;;
52618;SDS011;38513;53.234;6.568;2023-03-18T11:42:45;16.02;;;13.40;;
52618;SDS011;38513;53.234;6.568;2023-03-18T11:47:57;18.27;;;15.07;;
52618;SDS011;38513;53.234;6.568;2023-03-18T11:50:24;19.33;;;15.93;;
52618;SDS011;38513;53.234;6.568;2023-03-18T12:13:42;19.60;;;15.60;;
52618;SDS011;38513;53.234;6.568;2023-03-18T12:24:16;15.98;;;12.93;;
52618;SDS011;38513;53.234;6.568;2023-03-18T12:32:07;16.77;;;12.57;;
52618;SDS011;38513;53.234;6.568;2023-03-18T12:37:11;17.02;;;14.10;;
52618;SDS011;38513;53.234;6.568;2023-03-18T12:39:48;18.58;;;13.60;;
52618;SDS011;38513;53.234;6.568;2023-03-18T12:42:17;16.80;;;12.52;;
52618;SDS011;38513;53.234;6.568;2023-03-18T12:47:21;19.52;;;13.07;;
52618;SDS011;38513;53.234;6.568;2023-03-18T12:49:50;19.17;;;13.68;;
52618;SDS011;38513;53.234;6.568;2023-03-18T12:52:24;21.38;;;14.55;;
52618;SDS011;38513;53.234;6.568;2023-03-18T12:57:25;20.25;;;15.05;;
52618;SDS011;38513;53.234;6.568;2023-03-18T12:59:57;18.42;;;14.60;;
52618;SDS011;38513;53.234;6.568;2023-03-18T13:02:34;17.90;;;13.57;;
52618;SDS011;38513;53.234;6.568;2023-03-18T13:05:02;16.03;;;12.00;;
52618;SDS011;38513;53.234;6.568;2023-03-18T13:07:43;16.05;;;11.68;;
52618;SDS011;38513;53.234;6.568;2023-03-18T13:12:40;16.87;;;11.53;;
52618;SDS011;38513;53.234;6.568;2023-03-18T13:15:19;14.88;;;10.90;;
52618;SDS011;38513;53.234;6.568;2023-03-18T13:17:47;14.38;;;10.35;;
52618;SDS011;38513;53.234;6.568;2023-03-18T13:33:18;12.40;;;7.95;;
52618;SDS011;38513;53.234;6.568;2023-03-18T13:43:20;10.13;;;6.47;;
52618;SDS011;38513;53.234;6.568;2023-03-18T13:45:48;10.18;;;6.50;;
52618;SDS011;38513;53.234;6.568;2023-03-18T13:48:16;9.25;;;5.90;;
52618;SDS011;38513;53.234;6.568;2023-03-18T13:50:44;8.93;;;5.00;;
52618;SDS011;38513;53.234;6.568;2023-03-18T13:53:25;8.77;;;4.90;;
52618;SDS011;38513;53.234;6.568;2023-03-18T14:14:00;8.45;;;4.10;;
52618;SDS011;38513;53.234;6.568;2023-03-18T14:21:27;8.25;;;3.50;;
52618;SDS011;38513;53.234;6.568;2023-03-18T14:24:02;8.30;;;3.58;;
52618;SDS011;38513;53.234;6.568;2023-03-18T14:26:34;9.35;;;4.10;;
52618;SDS011;38513;53.234;6.568;2023-03-18T14:34:14;7.40;;;4.07;;
52618;SDS011;38513;53.234;6.568;2023-03-18T14:41:52;8.27;;;4.20;;
52618;SDS011;38513;53.234;6.568;2023-03-18T14:44:21;7.43;;;4.38;;
52618;SDS011;38513;53.234;6.568;2023-03-18T14:46:49;8.05;;;4.97;;
52618;SDS011;38513;53.234;6.568;2023-03-18T14:52:05;8.95;;;4.63;;
52618;SDS011;38513;53.234;6.568;2023-03-18T14:54:34;10.05;;;5.40;;
52618;SDS011;38513;53.234;6.568;2023-03-18T14:57:03;9.43;;;5.32;;
52618;SDS011;38513;53.234;6.568;2023-03-18T14:59:29;9.15;;;4.55;;
52618;SDS011;38513;53.234;6.568;2023-03-18T15:01:56;9.20;;;5.30;;
52618;SDS011;38513;53.234;6.568;2023-03-18T15:04:23;8.48;;;4.88;;
52618;SDS011;38513;53.234;6.568;2023-03-18T15:06:54;9.10;;;5.30;;
52618;SDS011;38513;53.234;6.568;2023-03-18T15:09:24;8.32;;;5.25;;
52618;SDS011;38513;53.234;6.568;2023-03-18T15:11:51;9.52;;;5.03;;
52618;SDS011;38513;53.234;6.568;2023-03-18T15:14:25;9.50;;;5.68;;
52618;SDS011;38513;53.234;6.568;2023-03-18T15:16:55;9.38;;;5.10;;
52618;SDS011;38513;53.234;6.568;2023-03-18T15:19:23;9.10;;;5.50;;
52618;SDS011;38513;53.234;6.568;2023-03-18T15:21:50;10.60;;;5.53;;
52618;SDS011;38513;53.234;6.568;2023-03-18T15:24:21;10.57;;;5.22;;
52618;SDS011;38513;53.234;6.568;2023-03-18T15:29:43;8.68;;;5.40;;
52618;SDS011;38513;53.234;6.568;2023-03-18T15:34:38;10.25;;;5.22;;
52618;SDS011;38513;53.234;6.568;2023-03-18T15:39:48;9.48;;;5.55;;
52618;SDS011;38513;53.234;6.568;2023-03-18T15:42:22;10.82;;;6.00;;
52618;SDS011;38513;53.234;6.568;2023-03-18T15:44:58;9.80;;;5.65;;
52618;SDS011;38513;53.234;6.568;2023-03-18T15:47:29;10.82;;;5.97;;
52618;SDS011;38513;53.234;6.568;2023-03-18T15:49:57;9.25;;;5.55;;
52618;SDS011;38513;53.234;6.568;2023-03-18T15:52:25;10.05;;;5.85;;
52618;SDS011;38513;53.234;6.568;2023-03-18T15:54:51;10.38;;;6.00;;
52618;SDS011;38513;53.234;6.568;2023-03-18T15:57:35;13.73;;;7.35;;
52618;SDS011;38513;53.234;6.568;2023-03-18T16:00:05;12.45;;;7.07;;
52618;SDS011;38513;53.234;6.568;2023-03-18T16:02:33;10.48;;;6.80;;
52618;SDS011;38513;53.234;6.568;2023-03-18T16:07:58;12.95;;;7.38;;
52618;SDS011;38513;53.234;6.568;2023-03-18T16:10:24;10.80;;;7.22;;
52618;SDS011;38513;53.234;6.568;2023-03-18T16:12:52;12.98;;;7.57;;
52618;SDS011;38513;53.234;6.568;2023-03-18T16:15:19;12.20;;;7.55;;
52618;SDS011;38513;53.234;6.568;2023-03-18T16:17:46;12.13;;;7.78;;
52618;SDS011;38513;53.234;6.568;2023-03-18T16:20:15;15.45;;;8.70;;
52618;SDS011;38513;53.234;6.568;2023-03-18T16:22:42;14.60;;;8.40;;
52618;SDS011;38513;53.234;6.568;2023-03-18T16:25:09;14.48;;;8.75;;
52618;SDS011;38513;53.234;6.568;2023-03-18T16:27:37;12.95;;;8.82;;
52618;SDS011;38513;53.234;6.568;2023-03-18T16:30:15;12.30;;;8.40;;
52618;SDS011;38513;53.234;6.568;2023-03-18T16:32:42;12.20;;;8.82;;
52618;SDS011;38513;53.234;6.568;2023-03-18T16:35:12;13.00;;;9.27;;
52618;SDS011;38513;53.234;6.568;2023-03-18T16:37:38;13.00;;;7.78;;
52618;SDS011;38513;53.234;6.568;2023-03-18T16:42:41;12.93;;;8.13;;
52618;SDS011;38513;53.234;6.568;2023-03-18T16:45:18;13.02;;;8.95;;
52618;SDS011;38513;53.234;6.568;2023-03-18T16:47:45;12.90;;;9.32;;
52618;SDS011;38513;53.234;6.568;2023-03-18T16:50:19;11.90;;;7.45;;
52618;SDS011;38513;53.234;6.568;2023-03-18T16:52:46;10.80;;;6.18;;
52618;SDS011;38513;53.234;6.568;2023-03-18T16:55:14;11.07;;;6.45;;
52618;SDS011;38513;53.234;6.568;2023-03-18T16:57:43;11.93;;;6.40;;
52618;SDS011;38513;53.234;6.568;2023-03-18T17:00:20;12.05;;;8.93;;
52618;SDS011;38513;53.234;6.568;2023-03-18T17:02:48;11.65;;;7.30;;
52618;SDS011;38513;53.234;6.568;2023-03-18T17:05:17;12.43;;;6.88;;